Time;durP1;ratioP1;P1;durP2;ratioP2;P2;SDS_P1;SDS_P2;PMS_P1;PMS_P2;Temp;Humidity;BMP_temperature;BMP_pressure;BME280_temperature;BME280_humidity;BME280_pressure;Samples;Min_cycle;Max_cycle;Signal;HPM_P1;HPM_P2
2023/06/19 00:01:43;;;;;;;5.20;4.70;;;23.30;95.30;;;;;;5153528;27;20421;-68
2023/06/19 00:04:10;;;;;;;6.23;5.30;;;23.30;95.50;;;;;;5153925;27;20428;-68
2023/06/19 00:06:36;;;;;;;7.50;6.80;;;23.30;95.40;;;;;;5153705;27;20191;-68
2023/06/19 00:09:02;;;;;;;7.57;6.73;;;23.30;95.90;;;;;;5153533;27;20469;-68
2023/06/19 00:11:29;;;;;;;6.90;6.20;;;23.30;95.50;;;;;;5153614;27;20187;-68
2023/06/19 00:13:54;;;;;;;7.53;6.17;;;23.20;95.30;;;;;;5153585;27;20794;-68
2023/06/19 00:16:20;;;;;;;9.90;6.20;;;23.20;95.80;;;;;;5153778;27;20417;-68
2023/06/19 00:18:46;;;;;;;8.37;6.33;;;23.20;95.70;;;;;;5153760;27;20212;-68
2023/06/19 00:21:11;;;;;;;6.17;5.53;;;23.20;96.10;;;;;;5153769;27;20188;-68
2023/06/19 00:23:37;;;;;;;6.53;5.90;;;23.10;96.60;;;;;;5153619;27;20420;-69
2023/06/19 00:26:03;;;;;;;9.53;6.40;;;23.10;96.80;;;;;;5152824;27;20300;-68
2023/06/19 00:28:30;;;;;;;7.20;6.60;;;23.00;96.60;;;;;;5152678;27;20210;-68
2023/06/19 00:30:56;;;;;;;6.40;5.90;;;22.90;97.00;;;;;;5152812;27;20471;-68
2023/06/19 00:33:21;;;;;;;22.23;6.60;;;23.00;97.10;;;;;;5152868;27;20424;-68
2023/06/19 00:35:50;;;;;;;14.73;7.83;;;23.00;98.90;;;;;;5152890;27;20554;-68
2023/06/19 00:38:16;;;;;;;10.57;7.30;;;22.80;99.90;;;;;;5134352;27;20206;-68
2023/06/19 00:40:42;;;;;;;14.83;8.57;;;22.60;99.90;;;;;;5152988;27;20415;-68
2023/06/19 00:43:07;;;;;;;10.13;7.23;;;22.40;99.90;;;;;;5153014;27;20185;-68
2023/06/19 00:45:33;;;;;;;11.60;7.27;;;22.20;99.90;;;;;;5152999;27;20185;-69
2023/06/19 00:48:00;;;;;;;14.77;7.60;;;22.00;99.90;;;;;;5152250;27;20242;-68
2023/06/19 00:50:28;;;;;;;10.03;7.50;;;21.90;99.90;;;;;;5152617;27;20302;-68
2023/06/19 00:52:54;;;;;;;8.50;6.73;;;21.80;99.90;;;;;;5134075;27;20519;-68
2023/06/19 00:55:21;;;;;;;13.70;7.20;;;21.70;99.90;;;;;;5133996;27;20542;-68
2023/06/19 00:57:47;;;;;;;9.87;7.60;;;21.60;99.90;;;;;;5152334;27;20209;-68
2023/06/19 01:00:13;;;;;;;12.73;7.80;;;21.30;99.90;;;;;;5152397;27;20436;-68
2023/06/19 01:02:39;;;;;;;9.83;8.37;;;21.30;99.90;;;;;;5152235;27;20416;-67
2023/06/19 01:05:05;;;;;;;11.13;7.40;;;21.00;99.90;;;;;;5133764;27;20435;-67
2023/06/19 01:07:58;;;;;;;16.17;7.80;;;20.80;99.90;;;;;;5152564;27;20184;-67
2023/06/19 01:10:47;;;;;;;9.63;8.10;;;20.70;99.90;;;;;;5152418;27;20471;-67
2023/06/19 01:13:30;;;;;;;8.20;7.40;;;20.80;99.90;;;;;;5133831;27;20487;-67
2023/06/19 01:15:57;;;;;;;11.73;8.47;;;20.70;99.90;;;;;;5152436;27;20416;-67
2023/06/19 01:18:24;;;;;;;12.27;8.37;;;20.50;99.90;;;;;;5152165;27;20434;-67
2023/06/19 01:20:50;;;;;;;7.60;6.53;;;20.50;99.90;;;;;;5133362;27;20920;-68
2023/06/19 01:23:15;;;;;;;10.33;8.10;;;20.60;99.90;;;;;;5133555;27;20505;-67
2023/06/19 01:25:41;;;;;;;8.50;7.67;;;20.70;99.90;;;;;;5151964;27;20266;-67
2023/06/19 01:28:10;;;;;;;8.63;7.30;;;20.80;99.90;;;;;;5151357;27;20549;-67
2023/06/19 01:30:38;;;;;;;7.90;7.10;;;20.90;99.90;;;;;;5151393;27;20208;-67
2023/06/19 01:33:12;;;;;;;8.93;6.67;;;20.90;99.90;;;;;;5151091;27;20410;-67
2023/06/19 01:35:41;;;;;;;14.87;7.10;;;21.00;99.90;;;;;;5151218;27;20398;-68
2023/06/19 01:38:07;;;;;;;9.97;7.80;;;21.00;99.90;;;;;;5151118;27;20414;-68
2023/06/19 01:40:35;;;;;;;10.93;7.53;;;21.00;99.90;;;;;;5151127;27;20946;-68
2023/06/19 01:43:02;;;;;;;7.80;7.03;;;21.00;99.90;;;;;;5150902;27;20832;-68
2023/06/19 01:45:29;;;;;;;8.03;7.20;;;21.00;99.90;;;;;;5150759;27;20493;-68
2023/06/19 01:47:55;;;;;;;9.10;7.10;;;21.10;99.90;;;;;;5150869;27;20505;-68
2023/06/19 01:50:22;;;;;;;10.20;7.33;;;21.40;99.90;;;;;;5150798;27;20457;-68
2023/06/19 01:52:48;;;;;;;11.20;7.50;;;21.70;99.90;;;;;;5150749;27;20402;-67
2023/06/19 01:55:14;;;;;;;12.00;7.77;;;22.00;99.90;;;;;;5131957;27;20414;-67
2023/06/19 01:57:40;;;;;;;8.53;7.40;;;22.10;99.90;;;;;;5150334;27;20423;-67
2023/06/19 02:00:07;;;;;;;8.10;7.30;;;22.20;99.90;;;;;;5150025;27;20212;-68
2023/06/19 02:02:33;;;;;;;10.80;7.90;;;22.20;99.90;;;;;;5150740;27;20542;-67
2023/06/19 02:04:59;;;;;;;7.43;6.70;;;22.20;99.90;;;;;;5150767;27;20419;-67
2023/06/19 02:07:25;;;;;;;9.43;7.00;;;22.10;99.90;;;;;;5150642;27;20423;-67
2023/06/19 02:09:50;;;;;;;7.87;7.07;;;22.10;99.90;;;;;;5131494;27;20241;-67
2023/06/19 02:12:16;;;;;;;8.90;6.90;;;22.10;99.90;;;;;;5150725;27;20675;-68
2023/06/19 02:14:41;;;;;;;9.30;7.50;;;22.00;99.90;;;;;;5150419;27;20181;-67
2023/06/19 02:17:07;;;;;;;9.00;7.30;;;22.00;99.90;;;;;;5150332;27;20188;-67
2023/06/19 02:19:33;;;;;;;9.47;7.50;;;21.90;99.90;;;;;;5150429;27;20675;-67
2023/06/19 02:21:58;;;;;;;14.00;6.73;;;21.90;99.90;;;;;;5150260;27;20679;-68
2023/06/19 02:24:24;;;;;;;7.67;6.90;;;21.90;99.90;;;;;;5150484;27;20190;-67
2023/06/19 02:26:50;;;;;;;9.93;6.37;;;21.90;99.90;;;;;;5131252;27;20224;-68
2023/06/19 02:29:16;;;;;;;12.70;6.43;;;21.80;99.90;;;;;;5150005;27;20230;-68
2023/06/19 02:31:42;;;;;;;8.37;7.57;;;21.80;99.90;;;;;;5131633;27;20943;-68
2023/06/19 02:34:08;;;;;;;7.83;6.57;;;21.80;99.90;;;;;;5150246;27;20715;-67
2023/06/19 02:36:35;;;;;;;9.93;6.40;;;21.80;99.90;;;;;;5150222;27;20938;-68
2023/06/19 02:39:01;;;;;;;9.50;6.73;;;21.80;99.90;;;;;;5150168;27;20463;-69
2023/06/19 02:41:26;;;;;;;7.53;6.80;;;21.80;99.90;;;;;;5150138;27;20468;-67
2023/06/19 02:43:52;;;;;;;11.20;6.23;;;21.70;99.90;;;;;;5131405;27;20410;-68
2023/06/19 02:46:18;;;;;;;8.73;6.90;;;21.70;99.90;;;;;;5149919;27;20714;-68
2023/06/19 02:48:43;;;;;;;8.97;6.17;;;21.70;99.90;;;;;;5150014;27;20225;-68
2023/06/19 02:51:09;;;;;;;6.60;5.93;;;21.70;99.90;;;;;;5149783;27;20554;-68
2023/06/19 02:53:35;;;;;;;14.00;6.80;;;21.60;99.90;;;;;;5150058;27;20646;-68
2023/06/19 02:56:00;;;;;;;8.83;6.37;;;21.60;99.90;;;;;;5149943;27;20235;-68
2023/06/19 02:58:26;;;;;;;5.80;5.20;;;21.60;99.90;;;;;;5113995;27;20867;-68
2023/06/19 03:00:52;;;;;;;7.13;6.43;;;21.60;99.90;;;;;;5149907;27;20193;-68
2023/06/19 03:03:18;;;;;;;6.20;5.50;;;21.60;99.90;;;;;;5150074;27;20856;-69
2023/06/19 03:05:43;;;;;;;7.47;5.60;;;21.60;99.90;;;;;;5149841;27;20511;-67
2023/06/19 03:08:09;;;;;;;7.60;5.40;;;21.60;99.90;;;;;;5150162;27;20187;-68
2023/06/19 03:10:35;;;;;;;6.00;5.50;;;21.60;99.90;;;;;;5151926;27;20238;-67
2023/06/19 03:13:00;;;;;;;7.50;5.23;;;21.50;99.90;;;;;;5153925;27;20188;-68
2023/06/19 03:15:26;;;;;;;6.10;5.50;;;21.60;99.90;;;;;;5153865;27;20264;-68
2023/06/19 03:17:54;;;;;;;6.20;5.43;;;21.60;99.90;;;;;;5153790;27;20192;-67
2023/06/19 03:20:20;;;;;;;6.03;5.37;;;21.60;99.90;;;;;;5153680;27;20208;-67
2023/06/19 03:22:46;;;;;;;10.50;5.77;;;21.50;99.90;;;;;;5135073;27;20811;-67
2023/06/19 03:25:12;;;;;;;5.60;5.10;;;21.60;99.90;;;;;;5153783;27;20265;-67
2023/06/19 03:27:37;;;;;;;18.83;6.27;;;21.60;99.90;;;;;;5153471;27;20208;-67
2023/06/19 03:30:06;;;;;;;6.57;5.50;;;21.60;99.90;;;;;;5153401;27;20225;-67
2023/06/19 03:32:33;;;;;;;6.43;4.70;;;21.60;99.90;;;;;;5153641;27;20559;-67
2023/06/19 03:34:59;;;;;;;7.03;5.47;;;21.60;99.90;;;;;;5134964;27;20426;-67
2023/06/19 03:37:24;;;;;;;5.63;5.13;;;21.60;99.90;;;;;;5153549;27;20406;-67
2023/06/19 03:39:50;;;;;;;6.97;5.10;;;21.60;99.90;;;;;;5153322;27;20266;-67
2023/06/19 03:42:15;;;;;;;10.10;5.67;;;21.60;99.90;;;;;;5153431;27;20730;-67
2023/06/19 03:44:41;;;;;;;13.10;5.37;;;21.60;99.90;;;;;;5153157;27;20193;-67
2023/06/19 03:47:07;;;;;;;5.50;5.00;;;21.60;99.90;;;;;;5153398;27;20214;-67
2023/06/19 03:49:32;;;;;;;5.83;5.23;;;21.60;99.90;;;;;;5153122;27;20328;-67
2023/06/19 03:51:58;;;;;;;7.70;4.80;;;21.60;99.90;;;;;;5153236;27;20510;-67
2023/06/19 03:54:24;;;;;;;5.03;4.57;;;21.60;99.90;;;;;;5153246;27;20189;-68
2023/06/19 03:56:51;;;;;;;5.10;4.60;;;21.60;99.90;;;;;;5153153;27;20174;-67
2023/06/19 03:59:16;;;;;;;4.80;4.30;;;21.50;99.90;;;;;;5153157;27;20468;-67
2023/06/19 04:01:42;;;;;;;5.10;4.70;;;21.60;99.90;;;;;;5153467;27;20454;-67
2023/06/19 04:04:08;;;;;;;6.33;5.30;;;21.60;99.90;;;;;;5134609;27;20264;-67
2023/06/19 04:06:33;;;;;;;5.37;4.00;;;21.60;99.90;;;;;;5152999;27;20207;-68
2023/06/19 04:08:59;;;;;;;7.03;4.20;;;21.70;99.90;;;;;;5152818;27;21030;-67
2023/06/19 04:11:25;;;;;;;8.23;4.00;;;21.70;99.90;;;;;;5152897;27;20615;-68
2023/06/19 04:13:50;;;;;;;4.97;4.47;;;21.70;99.90;;;;;;5152795;27;20582;-67
2023/06/19 04:16:16;;;;;;;6.80;3.50;;;21.70;99.90;;;;;;5152769;27;20217;-68
2023/06/19 04:18:41;;;;;;;6.50;4.37;;;21.60;99.90;;;;;;5152580;27;20571;-67
2023/06/19 04:21:07;;;;;;;3.67;3.30;;;21.70;99.90;;;;;;5132994;27;20230;-68
2023/06/19 04:23:32;;;;;;;8.90;3.50;;;21.70;99.90;;;;;;5152295;27;20755;-68
2023/06/19 04:25:58;;;;;;;4.30;3.40;;;21.70;99.90;;;;;;5152705;27;20184;-68
2023/06/19 04:28:24;;;;;;;3.37;3.07;;;21.60;99.90;;;;;;5152465;27;20738;-68
2023/06/19 04:30:50;;;;;;;5.27;3.63;;;21.60;99.90;;;;;;5152504;27;20318;-67
2023/06/19 04:33:16;;;;;;;3.23;2.93;;;21.70;99.90;;;;;;5152378;27;20514;-68
2023/06/19 04:35:41;;;;;;;2.70;2.50;;;21.70;99.90;;;;;;5152412;27;20184;-67
2023/06/19 04:38:08;;;;;;;3.63;3.33;;;21.70;99.90;;;;;;5133616;27;20189;-68
2023/06/19 04:40:33;;;;;;;3.63;3.20;;;21.70;99.90;;;;;;5152277;27;20263;-68
2023/06/19 04:43:01;;;;;;;2.93;2.73;;;21.70;99.90;;;;;;5133701;27;20521;-68
2023/06/19 04:45:26;;;;;;;2.87;2.57;;;21.60;99.90;;;;;;5152127;27;20188;-70
2023/06/19 04:47:52;;;;;;;3.90;2.43;;;21.70;99.90;;;;;;5133424;27;20791;-69
2023/06/19 04:50:17;;;;;;;2.67;2.47;;;21.80;99.90;;;;;;5116420;27;20224;-70
2023/06/19 04:52:43;;;;;;;3.23;2.97;;;21.70;99.90;;;;;;5151423;27;20182;-70
2023/06/19 04:55:09;;;;;;;3.73;2.90;;;21.70;99.90;;;;;;5150802;27;20198;-70
2023/06/19 04:57:36;;;;;;;2.50;2.30;;;21.60;99.90;;;;;;5150763;27;20185;-72
2023/06/19 05:00:05;;;;;;;3.53;2.10;;;21.60;99.90;;;;;;5131858;27;20445;-72
2023/06/19 05:02:31;;;;;;;2.60;2.40;;;21.50;99.90;;;;;;5132450;27;20425;-71
2023/06/19 05:04:56;;;;;;;2.80;2.60;;;21.40;99.90;;;;;;5131773;27;20414;-71
2023/06/19 05:07:22;;;;;;;2.57;2.37;;;21.30;99.90;;;;;;5131920;27;20643;-71
2023/06/19 05:09:48;;;;;;;2.33;2.13;;;21.40;99.90;;;;;;5150297;27;20215;-72
2023/06/19 05:12:13;;;;;;;4.90;2.27;;;21.30;99.90;;;;;;5131666;27;20420;-71
2023/06/19 05:14:39;;;;;;;2.23;2.13;;;21.30;99.90;;;;;;5150330;27;20660;-71
2023/06/19 05:17:05;;;;;;;2.17;1.93;;;21.30;99.90;;;;;;5131871;27;20169;-71
2023/06/19 05:19:31;;;;;;;2.60;2.40;;;21.30;99.90;;;;;;5150644;27;20196;-71
2023/06/19 05:21:57;;;;;;;1.93;1.83;;;21.40;99.90;;;;;;5150702;27;20475;-71
2023/06/19 05:24:22;;;;;;;3.10;1.83;;;21.50;99.90;;;;;;5150970;27;20188;-72
2023/06/19 05:26:48;;;;;;;3.33;2.03;;;21.50;99.90;;;;;;5151054;27;20991;-71
2023/06/19 05:29:13;;;;;;;1.87;1.73;;;21.30;99.90;;;;;;5132066;27;20209;-71
2023/06/19 05:31:39;;;;;;;2.40;2.17;;;21.40;99.90;;;;;;5132273;27;20641;-70
2023/06/19 05:34:05;;;;;;;1.70;1.60;;;21.30;99.90;;;;;;5150692;27;20283;-71
2023/06/19 05:36:30;;;;;;;1.97;1.87;;;21.30;99.90;;;;;;5132311;27;20615;-69
2023/06/19 05:38:56;;;;;;;1.97;1.77;;;21.30;99.90;;;;;;5150679;27;20201;-70
2023/06/19 05:41:22;;;;;;;1.90;1.80;;;21.30;99.90;;;;;;5132048;27;20237;-71
2023/06/19 05:43:47;;;;;;;2.23;2.10;;;21.40;99.90;;;;;;5150565;27;20669;-70
2023/06/19 05:46:13;;;;;;;1.87;1.70;;;21.40;99.90;;;;;;5150512;27;20415;-71
2023/06/19 05:48:38;;;;;;;1.80;1.70;;;21.50;99.90;;;;;;5131871;27;20721;-71
2023/06/19 05:51:04;;;;;;;1.73;1.63;;;21.50;99.90;;;;;;5150480;27;20219;-70
2023/06/19 05:53:31;;;;;;;1.77;1.33;;;21.50;99.90;;;;;;5150424;27;20668;-71
2023/06/19 05:55:58;;;;;;;3.43;1.70;;;21.60;99.90;;;;;;5150630;27;20185;-70
2023/06/19 05:58:25;;;;;;;1.73;1.63;;;21.70;99.90;;;;;;5131814;27;20459;-70
2023/06/19 06:00:57;;;;;;;1.50;1.27;;;21.70;99.90;;;;;;5150452;27;20414;-70
2023/06/19 06:03:25;;;;;;;1.43;1.33;;;21.80;99.90;;;;;;5150360;27;20474;-73
2023/06/19 06:05:51;;;;;;;2.10;1.90;;;21.80;99.90;;;;;;5150335;27;20411;-71
2023/06/19 06:08:17;;;;;;;2.30;1.53;;;21.90;99.90;;;;;;5150455;27;21294;-71
2023/06/19 06:10:43;;;;;;;1.80;1.70;;;22.00;99.90;;;;;;5150236;27;20549;-71
2023/06/19 06:13:08;;;;;;;2.07;1.90;;;22.10;99.90;;;;;;5150066;27;20180;-72
2023/06/19 06:15:34;;;;;;;1.70;1.60;;;22.20;99.90;;;;;;5131248;27;20647;-71
2023/06/19 06:18:00;;;;;;;2.10;1.90;;;22.30;99.90;;;;;;5130996;27;20191;-72
2023/06/19 06:20:26;;;;;;;3.37;1.70;;;22.30;99.90;;;;;;5149827;27;20196;-72
2023/06/19 06:22:52;;;;;;;2.20;2.00;;;22.30;99.90;;;;;;5149802;27;20448;-71
2023/06/19 06:25:18;;;;;;;2.93;1.70;;;22.50;99.90;;;;;;5149824;27;20285;-71
2023/06/19 06:27:44;;;;;;;1.73;1.63;;;22.60;99.90;;;;;;5131065;27;20533;-71
2023/06/19 06:30:11;;;;;;;3.90;1.83;;;22.90;99.90;;;;;;5149778;27;20228;-71
2023/06/19 06:32:37;;;;;;;1.63;1.53;;;22.90;99.90;;;;;;5130981;27;20597;-71
2023/06/19 06:35:03;;;;;;;1.80;1.70;;;22.80;99.90;;;;;;5131120;27;20453;-72
2023/06/19 06:37:29;;;;;;;1.77;1.67;;;23.00;99.90;;;;;;5149819;27;20182;-70
2023/06/19 06:39:55;;;;;;;1.80;1.60;;;23.10;99.90;;;;;;5149866;27;20492;-72
2023/06/19 06:42:20;;;;;;;2.00;1.90;;;23.30;99.90;;;;;;5149350;27;20198;-72
2023/06/19 06:44:46;;;;;;;2.10;1.50;;;23.50;99.90;;;;;;5129975;27;20262;-72
2023/06/19 06:47:12;;;;;;;1.60;1.50;;;23.80;99.90;;;;;;5149330;27;20253;-71
2023/06/19 06:49:37;;;;;;;1.47;1.37;;;24.00;99.90;;;;;;5149209;27;20215;-71
2023/06/19 06:52:07;;;;;;;2.00;1.80;;;24.30;99.90;;;;;;5148932;27;20182;-71
2023/06/19 06:54:32;;;;;;;2.40;2.00;;;24.70;99.90;;;;;;5130387;27;20277;-71
2023/06/19 06:56:59;;;;;;;1.70;1.60;;;24.90;99.90;;;;;;5148927;27;20503;-71
2023/06/19 06:59:26;;;;;;;2.70;1.50;;;24.90;99.90;;;;;;5130167;27;20289;-71
2023/06/19 07:01:53;;;;;;;3.97;2.30;;;25.00;99.90;;;;;;5148776;27;20427;-71
2023/06/19 07:04:19;;;;;;;5.00;2.40;;;24.90;99.90;;;;;;5148913;27;20505;-71
2023/06/19 07:06:44;;;;;;;4.73;2.20;;;24.90;99.90;;;;;;5148875;27;20885;-71
2023/06/19 07:09:11;;;;;;;2.33;1.70;;;24.70;99.90;;;;;;5148842;27;20230;-71
2023/06/19 07:11:36;;;;;;;2.27;2.17;;;24.70;99.90;;;;;;5148929;27;20188;-71
2023/06/19 07:14:02;;;;;;;2.80;2.60;;;24.60;99.90;;;;;;5130220;27;20778;-71
2023/06/19 07:16:28;;;;;;;3.17;2.87;;;24.40;99.90;;;;;;5148650;27;20182;-71
2023/06/19 07:18:54;;;;;;;3.80;3.37;;;24.30;99.90;;;;;;5149132;27;20206;-71
2023/06/19 07:21:19;;;;;;;3.93;2.53;;;24.60;99.90;;;;;;5130802;27;20183;-72
2023/06/19 07:23:47;;;;;;;4.40;2.37;;;24.80;99.90;;;;;;5149283;27;20606;-71
2023/06/19 07:26:14;;;;;;;4.00;2.50;;;25.10;99.90;;;;;;5130282;27;20230;-72
2023/06/19 07:28:40;;;;;;;2.53;2.23;;;25.20;99.90;;;;;;5149490;27;20451;-71
2023/06/19 07:31:06;;;;;;;4.43;2.43;;;25.20;99.90;;;;;;5149186;27;20456;-71
2023/06/19 07:33:31;;;;;;;2.07;1.97;;;25.20;99.90;;;;;;5113285;27;20892;-72
2023/06/19 07:35:57;;;;;;;2.20;2.10;;;25.20;99.90;;;;;;5130653;27;20315;-71
2023/06/19 07:38:23;;;;;;;2.30;2.20;;;25.40;99.90;;;;;;5148994;27;20208;-71
2023/06/19 07:40:49;;;;;;;2.80;2.60;;;25.50;99.90;;;;;;5149186;27;20187;-71
2023/06/19 07:43:15;;;;;;;3.10;2.17;;;25.40;99.90;;;;;;5149024;27;20413;-71
2023/06/19 07:45:40;;;;;;;3.00;2.80;;;25.50;99.90;;;;;;5149240;27;20409;-70
2023/06/19 07:48:06;;;;;;;4.80;2.53;;;25.60;99.90;;;;;;5149095;27;20885;-70
2023/06/19 07:50:32;;;;;;;2.67;2.47;;;25.60;99.90;;;;;;5148904;27;20213;-71
2023/06/19 07:52:57;;;;;;;2.87;2.67;;;25.30;99.90;;;;;;5148740;27;20172;-70
2023/06/19 07:55:23;;;;;;;3.17;2.87;;;24.80;99.90;;;;;;5148844;27;20709;-71
2023/06/19 07:57:49;;;;;;;3.10;2.90;;;24.70;99.90;;;;;;5151132;27;20219;-71
2023/06/19 08:00:15;;;;;;;4.97;3.23;;;24.60;99.90;;;;;;5152697;27;20203;-71
2023/06/19 08:02:41;;;;;;;4.40;3.47;;;24.70;99.90;;;;;;5152791;27;21264;-71
2023/06/19 08:05:08;;;;;;;4.30;3.10;;;25.00;99.90;;;;;;5134218;27;20429;-72
2023/06/19 08:07:34;;;;;;;4.10;3.50;;;25.10;99.90;;;;;;5134009;27;20421;-71
2023/06/19 08:10:00;;;;;;;2.83;2.63;;;25.20;99.90;;;;;;5152434;27;20616;-72
2023/06/19 08:12:26;;;;;;;2.87;2.50;;;25.50;99.90;;;;;;5152833;27;20504;-71
2023/06/19 08:14:51;;;;;;;2.80;2.60;;;26.00;99.90;;;;;;5152330;27;20417;-70
2023/06/19 08:17:17;;;;;;;3.23;3.03;;;26.10;99.90;;;;;;5133136;27;20180;-70
2023/06/19 08:19:43;;;;;;;3.10;2.63;;;26.40;99.90;;;;;;5151924;27;20650;-71
2023/06/19 08:22:09;;;;;;;2.20;2.10;;;26.40;99.90;;;;;;5151798;27;20196;-72
2023/06/19 08:24:36;;;;;;;2.70;2.50;;;26.40;99.90;;;;;;5151742;27;20184;-71
2023/06/19 08:27:02;;;;;;;2.73;2.53;;;26.50;99.90;;;;;;5151421;27;20565;-71
2023/06/19 08:29:28;;;;;;;2.63;2.43;;;26.60;99.90;;;;;;5132364;27;20540;-71
2023/06/19 08:31:53;;;;;;;6.20;2.43;;;26.90;99.90;;;;;;5132626;27;20417;-71
2023/06/19 08:34:19;;;;;;;3.20;3.00;;;27.00;99.90;;;;;;5132663;27;20183;-71
2023/06/19 08:36:44;;;;;;;2.40;1.73;;;27.10;99.90;;;;;;5151380;27;20185;-71
2023/06/19 08:39:10;;;;;;;2.40;2.20;;;27.10;99.90;;;;;;5151192;27;20196;-71
2023/06/19 08:41:41;;;;;;;8.70;2.70;;;27.30;99.90;;;;;;5151635;27;20227;-70
2023/06/19 08:44:07;;;;;;;2.40;1.63;;;27.40;99.90;;;;;;5132816;27;20194;-70
2023/06/19 08:46:34;;;;;;;2.50;2.30;;;27.60;99.90;;;;;;5151156;27;20497;-71
2023/06/19 08:49:00;;;;;;;1.90;1.70;;;27.70;99.90;;;;;;5132213;27;20438;-70
2023/06/19 08:51:28;;;;;;;2.00;1.87;;;27.80;99.90;;;;;;5151299;27;21089;-70
2023/06/19 08:54:01;;;;;;;6.33;1.97;;;27.60;99.90;;;;;;5132233;27;20922;-69
2023/06/19 08:56:27;;;;;;;4.23;1.63;;;27.60;99.90;;;;;;5150961;27;20414;-71
2023/06/19 08:58:53;;;;;;;1.90;1.80;;;27.80;99.90;;;;;;5150924;27;20498;-72
2023/06/19 09:01:19;;;;;;;1.80;1.70;;;27.60;99.70;;;;;;5151112;27;20180;-71
2023/06/19 09:03:46;;;;;;;3.20;2.17;;;27.50;99.90;;;;;;5150681;27;20497;-71
2023/06/19 09:06:16;;;;;;;2.23;2.03;;;27.20;99.90;;;;;;5131542;27;20725;-70
2023/06/19 09:08:41;;;;;;;2.90;2.30;;;27.00;99.90;;;;;;5150207;27;20434;-71
2023/06/19 09:11:07;;;;;;;2.90;2.50;;;27.00;99.90;;;;;;5150948;27;20472;-71
2023/06/19 09:13:33;;;;;;;2.30;2.20;;;27.00;99.90;;;;;;5132205;27;20176;-70
2023/06/19 09:16:05;;;;;;;2.73;2.53;;;26.90;99.90;;;;;;5131572;27;20214;-71
2023/06/19 09:18:41;;;;;;;2.47;2.27;;;26.90;99.90;;;;;;5150630;27;20428;-70
2023/06/19 09:21:16;;;;;;;2.57;2.40;;;27.00;99.90;;;;;;5150751;27;20521;-70
2023/06/19 09:23:42;;;;;;;2.60;2.30;;;27.00;99.90;;;;;;5150868;27;20419;-71
2023/06/19 09:26:07;;;;;;;3.37;2.60;;;27.10;99.90;;;;;;5131938;27;20425;-71
2023/06/19 09:28:33;;;;;;;2.57;2.37;;;27.00;99.90;;;;;;5150780;27;20445;-71
2023/06/19 09:31:00;;;;;;;2.57;2.47;;;27.20;99.90;;;;;;5150475;27;20212;-71
2023/06/19 09:33:30;;;;;;;2.40;2.20;;;27.60;99.90;;;;;;5150859;27;20177;-72
2023/06/19 09:35:57;;;;;;;2.73;2.53;;;28.00;99.90;;;;;;5150553;27;20798;-72
2023/06/19 09:38:28;;;;;;;2.83;2.63;;;28.20;99.90;;;;;;5150611;27;20426;-72
2023/06/19 09:40:55;;;;;;;3.27;3.00;;;28.60;99.90;;;;;;5114990;27;20449;-72
2023/06/19 09:43:25;;;;;;;3.80;2.80;;;29.10;99.90;;;;;;5150538;27;20418;-72
2023/06/19 09:45:55;;;;;;;2.57;2.37;;;29.30;99.70;;;;;;5150223;27;20507;-72
2023/06/19 09:48:30;;;;;;;3.23;2.70;;;29.30;98.20;;;;;;5150102;27;20531;-70
2023/06/19 09:51:17;;;;;;;2.53;2.33;;;29.40;99.10;;;;;;5150391;27;20504;-70
2023/06/19 09:53:45;;;;;;;2.60;2.00;;;29.90;99.90;;;;;;5150067;27;20416;-70
2023/06/19 09:56:12;;;;;;;2.27;2.10;;;30.20;99.00;;;;;;5149692;27;20494;-69
2023/06/19 09:58:38;;;;;;;4.17;2.73;;;30.20;97.30;;;;;;5149576;27;20533;-70
2023/06/19 10:01:05;;;;;;;2.77;2.57;;;30.10;98.30;;;;;;5131263;27;20983;-70
2023/06/19 10:03:32;;;;;;;2.80;2.60;;;29.90;98.20;;;;;;5149820;27;20417;-70
2023/06/19 10:06:02;;;;;;;3.03;2.83;;;29.40;98.40;;;;;;5149841;27;20413;-70
2023/06/19 10:08:37;;;;;;;2.90;2.73;;;29.20;98.80;;;;;;5150298;27;20561;-71
2023/06/19 10:11:03;;;;;;;3.00;2.80;;;29.20;98.80;;;;;;5149760;27;20533;-71
2023/06/19 10:13:35;;;;;;;2.70;2.50;;;29.20;99.40;;;;;;5131287;27;20849;-71
2023/06/19 10:16:01;;;;;;;3.53;2.80;;;29.60;99.00;;;;;;5150298;27;20173;-70
2023/06/19 10:18:26;;;;;;;1.70;1.60;;;30.10;98.10;;;;;;5149896;27;20433;-70
2023/06/19 10:20:54;;;;;;;4.20;2.40;;;30.80;97.40;;;;;;5149729;27;20418;-71
2023/06/19 10:23:23;;;;;;;2.47;2.17;;;31.00;96.40;;;;;;5150150;27;20184;-71
2023/06/19 10:25:59;;;;;;;3.10;2.00;;;31.40;95.50;;;;;;5150409;27;20785;-70
2023/06/19 10:28:30;;;;;;;2.50;2.30;;;31.70;94.60;;;;;;5150396;27;20449;-70
2023/06/19 10:31:05;;;;;;;2.10;2.00;;;31.80;94.70;;;;;;5150316;27;20457;-70
2023/06/19 10:33:36;;;;;;;2.20;2.10;;;31.70;94.30;;;;;;5150554;27;20756;-69
2023/06/19 10:36:22;;;;;;;2.50;1.70;;;31.90;93.50;;;;;;5150594;27;20794;-70
2023/06/19 10:38:49;;;;;;;1.70;1.60;;;32.20;93.10;;;;;;5150255;27;20428;-69
2023/06/19 10:41:22;;;;;;;1.67;1.57;;;32.30;92.90;;;;;;5150188;27;20934;-70
2023/06/19 10:44:13;;;;;;;3.00;1.77;;;32.40;91.90;;;;;;5131319;27;20462;-70
2023/06/19 10:46:40;;;;;;;1.97;1.80;;;32.60;92.30;;;;;;5149743;27;20417;-68
2023/06/19 10:49:08;;;;;;;1.83;1.73;;;32.50;91.80;;;;;;5149762;27;20778;-69
2023/06/19 10:51:35;;;;;;;1.97;1.87;;;32.60;91.00;;;;;;5149978;27;20418;-71
2023/06/19 10:54:01;;;;;;;2.27;2.13;;;32.70;91.40;;;;;;5113971;27;20410;-70
2023/06/19 10:56:26;;;;;;;3.17;2.30;;;32.80;90.20;;;;;;5149798;27;20424;-70
2023/06/19 10:59:05;;;;;;;2.87;2.67;;;32.90;91.10;;;;;;5149597;27;20681;-71
2023/06/19 11:01:36;;;;;;;2.10;2.00;;;33.10;91.30;;;;;;5149728;27;20180;-70
2023/06/19 11:04:09;;;;;;;2.73;1.77;;;33.30;90.90;;;;;;5149156;27;20406;-70
2023/06/19 11:06:35;;;;;;;2.87;2.67;;;33.70;90.80;;;;;;5149576;27;20414;-70
2023/06/19 11:09:03;;;;;;;2.20;1.97;;;33.50;90.50;;;;;;5149190;27;20582;-71
2023/06/19 11:12:02;;;;;;;3.90;2.10;;;33.60;90.20;;;;;;5149076;27;20492;-70
2023/06/19 11:14:30;;;;;;;2.67;2.47;;;33.10;90.00;;;;;;5074665;27;20417;-71
2023/06/19 11:16:55;;;;;;;2.30;2.20;;;32.60;90.40;;;;;;5149089;27;20422;-71
2023/06/19 11:19:23;;;;;;;2.80;2.60;;;32.40;90.50;;;;;;5148967;27;20437;-71
2023/06/19 11:21:52;;;;;;;2.23;2.13;;;32.50;91.20;;;;;;5148872;27;20252;-71
2023/06/19 11:24:20;;;;;;;2.33;2.23;;;32.50;89.40;;;;;;5148800;27;20426;-71
2023/06/19 11:26:51;;;;;;;4.03;2.60;;;32.90;90.50;;;;;;5148772;27;20441;-71
2023/06/19 11:29:24;;;;;;;3.07;2.87;;;33.00;89.80;;;;;;5148761;27;20462;-70
2023/06/19 11:31:51;;;;;;;3.57;2.40;;;33.00;90.60;;;;;;5151477;27;20521;-70
2023/06/19 11:34:17;;;;;;;3.00;2.37;;;33.00;90.20;;;;;;5152818;27;20445;-70
2023/06/19 11:36:43;;;;;;;2.93;2.70;;;32.20;89.10;;;;;;5152708;27;20410;-71
2023/06/19 11:39:15;;;;;;;2.43;2.33;;;32.70;89.60;;;;;;5133701;27;20442;-71
2023/06/19 11:41:43;;;;;;;4.27;2.87;;;32.90;90.20;;;;;;5152911;27;20418;-71
2023/06/19 11:44:11;;;;;;;2.70;2.60;;;33.00;88.80;;;;;;5152790;27;20927;-70
2023/06/19 11:46:37;;;;;;;3.17;2.47;;;33.10;89.00;;;;;;5152748;27;20417;-71
2023/06/19 11:49:13;;;;;;;3.27;2.23;;;33.30;88.60;;;;;;5151790;27;20813;-72
2023/06/19 11:51:40;;;;;;;2.43;2.30;;;33.50;87.40;;;;;;5151906;27;20429;-69
2023/06/19 11:54:11;;;;;;;3.03;2.80;;;33.30;89.10;;;;;;5151792;27;20442;-72
2023/06/19 11:56:38;;;;;;;3.60;2.83;;;33.50;89.00;;;;;;5151933;27;20501;-71
2023/06/19 11:59:04;;;;;;;2.87;2.67;;;33.00;87.40;;;;;;5151567;27;20986;-71
2023/06/19 12:01:34;;;;;;;2.90;2.70;;;32.70;89.60;;;;;;5132636;27;20424;-70
2023/06/19 12:04:00;;;;;;;2.87;2.67;;;32.80;89.50;;;;;;5151636;27;20410;-70
2023/06/19 12:06:26;;;;;;;3.03;2.60;;;32.70;89.60;;;;;;5151554;27;20494;-70
2023/06/19 12:08:52;;;;;;;5.70;2.70;;;32.40;89.80;;;;;;5151259;27;20433;-72
2023/06/19 12:11:18;;;;;;;2.57;2.37;;;32.60;90.70;;;;;;5151437;27;20461;-70
2023/06/19 12:13:44;;;;;;;2.60;2.40;;;32.40;87.80;;;;;;5132634;27;20184;-71
2023/06/19 12:16:13;;;;;;;4.03;2.40;;;32.40;90.20;;;;;;5151256;27;20204;-71
2023/06/19 12:18:39;;;;;;;2.83;2.63;;;32.40;89.00;;;;;;5151275;27;20433;-71
2023/06/19 12:21:05;;;;;;;2.80;2.60;;;32.50;89.20;;;;;;5151267;27;20414;-70
2023/06/19 12:23:31;;;;;;;4.77;2.77;;;32.70;89.80;;;;;;5151202;27;20210;-70
2023/06/19 12:25:57;;;;;;;2.70;2.60;;;33.10;87.90;;;;;;5150752;27;20468;-70
2023/06/19 12:28:23;;;;;;;2.57;2.47;;;33.50;89.20;;;;;;5132410;27;20215;-71
2023/06/19 12:30:51;;;;;;;3.10;2.90;;;33.70;87.90;;;;;;5150914;27;20208;-71
2023/06/19 12:33:17;;;;;;;2.57;2.37;;;33.30;85.50;;;;;;5151146;27;20797;-70
2023/06/19 12:35:46;;;;;;;2.60;2.40;;;33.10;86.30;;;;;;5151122;27;21181;-71
2023/06/19 12:38:12;;;;;;;3.00;2.67;;;33.40;86.20;;;;;;5151330;27;20406;-70
2023/06/19 12:40:38;;;;;;;2.63;2.53;;;33.30;85.20;;;;;;5132653;27;20424;-70
2023/06/19 12:43:04;;;;;;;2.90;2.70;;;33.40;85.00;;;;;;5150589;27;20569;-70
2023/06/19 12:45:30;;;;;;;2.97;2.77;;;33.40;84.90;;;;;;5132667;27;20196;-72